Time;durP1;ratioP1;P1;durP2;ratioP2;P2;SDS_P1;SDS_P2;PMS_P1;PMS_P2;Temp;Humidity;BMP_temperature;BMP_pressure;BME280_temperature;BME280_humidity;BME280_pressure;Samples;Min_cycle;Max_cycle;Signal;HPM_P1;HPM_P2
2023/01/21 06:36:48;;;;;;;30.63;16.17;;;2.00;99.90;;;;;;6403851;21;1359898;-82
2023/01/21 06:39:14;;;;;;;;;;;1.90;99.90;;;;;;6404358;22;20022;-79
2023/01/21 06:41:40;;;;;;;27.27;16.20;;;2.00;99.90;;;;;;6399706;22;19982;-81
2023/01/21 06:44:05;;;;;;;;;;;2.00;99.90;;;;;;6374386;22;20009;-80
2023/01/21 06:46:32;;;;;;;30.42;15.20;;;2.00;99.90;;;;;;6401273;22;19914;-81
2023/01/21 06:48:58;;;;;;;30.67;17.90;;;2.20;99.90;;;;;;6406736;22;19990;-82
2023/01/21 06:51:23;;;;;;;;;;;2.00;99.90;;;;;;6379504;22;20029;-81
2023/01/21 06:53:49;;;;;;;32.30;18.05;;;2.00;99.90;;;;;;6404241;22;19898;-81
2023/01/21 09:17:24;;;;;;;23.52;13.18;;;3.90;99.90;;;;;;6297681;22;20082;-79
2023/01/21 09:19:50;;;;;;;13.27;8.38;;;4.00;99.90;;;;;;6336256;22;20007;-79
2023/01/21 09:22:16;;;;;;;;;;;4.20;99.90;;;;;;6309483;22;20010;-78
2023/01/21 09:24:42;;;;;;;15.93;10.38;;;4.30;99.90;;;;;;6333675;22;19902;-80
2023/01/21 09:27:08;;;;;;;;;;;4.30;99.90;;;;;;6335784;22;20003;-78
2023/01/21 09:29:35;;;;;;;32.97;19.77;;;4.30;99.90;;;;;;6335842;22;19905;-79
2023/01/21 09:32:01;;;;;;;11.35;7.50;;;4.20;99.90;;;;;;6309443;22;20033;-79
2023/01/21 09:34:27;;;;;;;12.13;7.43;;;4.50;99.90;;;;;;6336715;22;19987;-79
2023/01/21 09:36:53;;;;;;;11.07;7.03;;;4.30;99.90;;;;;;6335946;22;20015;-80
2023/01/21 09:39:19;;;;;;;;;;;4.10;99.90;;;;;;6336485;22;20436;-79
2023/01/21 09:41:48;;;;;;;13.88;8.80;;;3.90;99.90;;;;;;6309375;22;19893;-79
2023/01/21 09:44:14;;;;;;;12.88;8.13;;;3.90;99.90;;;;;;6310127;22;19998;-79
2023/01/21 09:46:59;;;;;;;;;;;3.90;99.90;;;;;;6310240;22;20014;-80
2023/01/21 09:49:31;;;;;;;11.18;5.55;;;3.90;99.90;;;;;;6309626;22;19903;-79
2023/01/21 09:52:25;;;;;;;16.85;11.82;;;3.90;99.90;;;;;;6309614;22;20014;-79
2023/01/21 09:54:52;;;;;;;7.47;4.88;;;4.10;99.90;;;;;;6300892;22;20014;-80
2023/01/21 09:57:27;;;;;;;11.05;6.55;;;4.10;99.90;;;;;;6278774;22;19991;-79
2023/01/21 10:00:07;;;;;;;10.07;6.68;;;3.90;99.90;;;;;;6305271;22;19996;-79
2023/01/21 10:02:39;;;;;;;10.45;5.85;;;4.00;99.90;;;;;;6304995;22;19988;-79
2023/01/21 10:05:40;;;;;;;11.40;4.75;;;4.10;99.90;;;;;;6304561;22;20011;-80
2023/01/21 10:08:27;;;;;;;8.32;4.25;;;4.20;99.90;;;;;;6305241;22;19988;-80
2023/01/21 10:11:05;;;;;;;36.58;23.45;;;4.40;99.90;;;;;;6306404;22;19984;-78
2023/01/21 10:13:59;;;;;;;8.25;4.45;;;4.40;99.90;;;;;;6306355;22;20036;-79
2023/01/21 10:16:37;;;;;;;4.80;2.55;;;4.30;99.90;;;;;;6305600;22;19987;-80
2023/01/21 10:19:04;;;;;;;10.18;4.90;;;4.20;99.90;;;;;;6306024;22;19996;-79
2023/01/21 10:21:37;;;;;;;10.57;4.65;;;4.10;99.90;;;;;;6306218;22;19988;-80
2023/01/21 10:24:15;;;;;;;12.75;4.68;;;4.10;99.90;;;;;;6306112;22;20000;-80
2023/01/21 10:26:44;;;;;;;8.57;5.03;;;4.10;99.90;;;;;;6305284;22;19992;-80
2023/01/21 10:29:16;;;;;;;7.75;4.40;;;4.40;99.90;;;;;;6305353;22;19988;-80
2023/01/21 10:31:58;;;;;;;24.95;16.00;;;4.50;99.90;;;;;;6305764;22;19998;-80
2023/01/21 10:34:28;;;;;;;17.95;10.93;;;4.70;99.90;;;;;;6304910;22;19999;-80
2023/01/21 10:37:05;;;;;;;15.48;8.80;;;4.80;99.90;;;;;;6305611;22;19990;-80
2023/01/21 10:39:44;;;;;;;13.80;8.65;;;4.80;99.90;;;;;;6279763;22;19988;-80
2023/01/21 10:42:13;;;;;;;6.45;3.28;;;4.90;99.90;;;;;;6305597;22;19988;-80
2023/01/21 10:45:00;;;;;;;11.50;6.28;;;5.20;99.90;;;;;;6305391;22;20008;-79
2023/01/21 10:47:28;;;;;;;;;;;5.00;99.90;;;;;;6279908;22;19998;-79
2023/01/21 10:49:57;;;;;;;5.00;2.53;;;4.80;99.90;;;;;;6305826;22;19892;-78
2023/01/21 10:52:43;;;;;;;3.67;1.77;;;4.70;99.90;;;;;;6306246;22;20015;-79
